Millenium Air

Millenium Air Since 1998



 METAR AND TAF INFORMATION
METAR FOR BGSF
ADDS - METARS form results

(2251 UTC 05 July 2020)
Data provider http://aviationweather.gov/metar/data/
 
Forecast for: BGSF (SONDRE STROMFJOR, GL)
Text: TAF BGSF 051653Z 0518/0601 23005KT 9999 FEW045 BKN200
Forecast period: 1800 UTC 05 July 2020 to 0100 UTC 06 July 2020
Forecast type: FROM: standard forecast or significant change
Winds: from the SW (230 degrees) at 6 MPH (5 knots; 2.6 m/s)
Visibility: 6 or more miles 10+ km)
Ceiling: 20000 feet AGL
Clouds: few clouds at 4500 feet AGL
broken clouds at 20000 feet AGL
Weather: no significant weather forecast for this period

 AIRPORT MAP

 RUNWAY INFORMATION
Runway 09 Runway length 9219 ft Runway width 197 ft
Runway elevation 100 ft Runway displaced threshold 0 ft Runway heading 62
Runway 27 Runway length 9219 ft Runway width 197 ft
Runway elevation 165 ft Runway displaced threshold 0 ft Runway heading 242

 AIRPORT FREQUENCIES
Type A/D Name APP/DEP Frequency 126.2 MHZ
Type RDO Name RDO Frequency 121.3 MHZ
Type TWR Name TWR Frequency 118.3 MHZ

 AIRPORT NEAR NAVIGATION AIDS
Type NDB Name Sondre Stromfjord Frequency 382 KHZ